Líbí se Vám tento web? Budeme velmi rádi, pokud přidáte hodnocení +1

Seznam meteostanic a jejich METAR

Vyhledat místa podle abecedy:
A B C D E F G H I J K L M N O P Q R S T U V W X Y Z

Filtrovat:

ID stanice:
a/nebo
Název místa (fulltext):
 
Místo (ID)Naposledy načteno 
Milešovka (Milesovka) 17.01.2018 21:00 UTC Zobrazit data
Místo: Milešovka
Teplota: -2 °C (pocitová: -14.9 °C)
Vítr: 11 m/s z(e) 300°
Počasí: sněží
Dohlednost: 10 km
Zákl. oblačnosti: 8/8 90 m
Vlhkost: 93%
Mošnov (Ostrava/Mo) 17.01.2018 21:00 UTC Zobrazit data
Místo: Mošnov
Teplota: 0 °C (pocitová: -10.4 °C)
Vítr: 7 m/s z(e) 230°
Počasí: sněží
Dohlednost: 6 km
Zákl. oblačnosti: 5/8 1200 m;8/8 1500 m
Vlhkost: 100%
Macau (VMMC) 17.01.2018 21:00 UTC Zobrazit METAR
VMMC 172100Z 07003KT 030V090 7000 NSC 16/15 Q1015 TEMPO 4000 BR
Madeira (LPMA) 17.01.2018 21:00 UTC Zobrazit METAR
LPMA 172100Z 02015KT 9999 BKN014 17/13 Q1026
Madrid (LETO) 17.01.2018 21:00 UTC Zobrazit METAR
LETO 172100Z 02007KT CAVOK 04/02 Q1026 NOSIG
Majuro Atoll (PKMA) Zatím nenačteno  
Malabo (FGSL) 17.01.2018 21:00 UTC Zobrazit METAR
FGSL 172100Z 24006KT 8000 FEW012 25/23 Q1012 NOSIG
Malaga (LEMG) 17.01.2018 21:00 UTC Zobrazit METAR
LEMG 172100Z 34003KT 300V020 CAVOK 11/09 Q1022 NOSIG
Male (VRMM) 17.01.2018 18:00 UTC Zobrazit METAR
VRMM 171800Z 06014KT 7000 FEW018 SCT290 28/23 Q1011 NOSIG
Malmo (ESMS) 17.01.2018 20:50 UTC Zobrazit METAR
ESMS 172050Z 25006KT 9999 BKN012 01/M00 Q0993 R17/290195
Malta (LMML) 17.01.2018 20:45 UTC Zobrazit METAR
LMML 172045Z 30024KT CAVOK 15/08 Q1016 NOSIG
Managua (MNMG) 17.01.2018 21:00 UTC Zobrazit METAR
MNMG 172100Z 05014KT 9999 FEW023 BKN080 31/18 Q1011 A2986 NOSIG
Manchester (EGCC) 17.01.2018 20:50 UTC Zobrazit METAR
EGCC 172050Z 20006KT 150V230 9000 -RA SCT018 BKN024 04/02 Q0999
Manila (RPLL) 17.01.2018 21:00 UTC Zobrazit METAR
RPLL 172100Z 00000KT 9999 SCT023 OVC100 25/25 Q1010 NOSIG RMK A2983
Manzini (FDMS) 17.01.2018 14:00 UTC Zobrazit METAR
FDMS 171400Z 08007KT 9999 FEW035 30/16 Q1016 NOSIG
Maputo (FQMA) 17.01.2018 21:00 UTC Zobrazit METAR
FQMA 172100Z 09010KT 9999 BKN020 26/22 Q1016 NOSIG
Maribor (LJMB) 17.01.2018 21:00 UTC Zobrazit METAR
LJMB 172100Z 28009KT CAVOK 04/M09 Q1008
Marrakech (GMMX) 17.01.2018 21:00 UTC Zobrazit METAR
GMMX 172100Z 09002KT 9999 FEW100 11/07 Q1018 NOSIG
Maseru (FXMM) 15.01.2018 09:00 UTC Zobrazit METAR
FXMM 150900Z 26003KT 9999 FEW040 30/08 Q1020 NOSIG
Mauritius (FIMP) 17.01.2018 11:00 UTC Zobrazit METAR
FIMP 171100Z 16017G29KT 2000 VCSH FEW005 BKN013 BKN045 27/26 Q1001
Melilla (GEML) 17.01.2018 19:00 UTC Zobrazit METAR
GEML 171900Z 24003KT CAVOK 12/09 Q1021
Mexico City (MMMX) 17.01.2018 19:47 UTC Zobrazit METAR
MMMX 171947Z 13005KT 6SM BKN250 18/M02 A3036 NOSIG RMK 8/008 HZY
Midway Atoll, Sand Island (PMDY) 17.01.2018 20:48 UTC Zobrazit METAR
PMDY 172048Z AUTO 05014G20KT 2 1/2SM -RA BR SCT009 BKN013 OVC023 19/18 A3012 RMK AO2 VIS 1 1/2V4 P0004
Milan (LIMC) 17.01.2018 20:50 UTC Zobrazit METAR
LIMC 172050Z VRB02KT CAVOK M01/M05 Q1015 NOSIG
Minsk (UMMM) 11.07.2016 14:00 UTC Zobrazit METAR
UMMM 111400Z ///// //// BKN040 BKN200 28/16 Q1009 NOSIG RMK QFE738
Mitilini (LGMT) 17.01.2018 19:50 UTC Zobrazit METAR
LGMT 171950Z 21020G30KT 140V240 9999 SCT025 14/11 Q1001
Mogadishu (HCMM) 17.01.2018 13:00 UTC Zobrazit METAR
HCMM 171300Z 09016KT CAVOK 28/24 Q1007 NOSIG
Monrovia (GLRB) 17.01.2018 21:00 UTC Zobrazit METAR
GLRB 172100Z 00000KT 7000 BKN015 26/23 Q1012 RMK BRVC
Montevideo (SUMU) 17.01.2018 21:00 UTC Zobrazit METAR
SUMU 172100Z 16005KT 9999 -RA SCT033 OVC080 23/20 Q1010 TEMPO 6000 TSRA
Montpellier/ Mediterranee (LFMT) 17.01.2018 21:00 UTC Zobrazit METAR
LFMT 172100Z AUTO 28012KT CAVOK 09/01 Q1024 NOSIG
Moscow (UUEE) Zatím nenačteno  
Mostar (LQMO) 17.01.2018 21:00 UTC Zobrazit METAR
LQMO 172100Z 31017KT 9999 FEW040 BKN070 08/M04 Q1004
Mount Pleasant (EGYP) 17.01.2018 20:50 UTC Zobrazit METAR
EGYP 172050Z 27015KT 9999 FEW033 OVC044 11/04 Q0999 BLU TEMPO 7000 RA WHT
Munich (EDDM) 17.01.2018 18:50 UTC Zobrazit METAR
EDDM 171850Z 26020KT 9999 -SHSN FEW005 SCT013 BKN040 00/M02 Q1009 TEMPO 25015G25KT
Muscat (OOMS) 17.01.2018 20:50 UTC Zobrazit METAR
OOMS 172050Z 18004KT CAVOK 18/14 Q1013 NOSIG
Reklama

Počasí na Váš email

Emaily jsou bez reklamy a bez spamu



Odhlásit newsletter

Reklama


Lunární kalendář

  • 24.01.
  • 31.01.
  • 07.02.
  • 15.02.



Jsme na Google Plus

Reklama
Povinné ručení



Může Vás také zajímat:


Reklama